Time;durP1;ratioP1;P1;durP2;ratioP2;P2;SDS_P1;SDS_P2;PMS_P1;PMS_P2;Temp;Humidity;BMP_temperature;BMP_pressure;BME280_temperature;BME280_humidity;BME280_pressure;Samples;Min_cycle;Max_cycle;Signal;HPM_P1;HPM_P2
2023/01/31 00:00:20;;;;;;;;;;;4.00;99.90;;;;;;5011710;28;208345;-74
2023/01/31 00:02:46;;;;;;;;;;;4.00;99.90;;;;;;5042744;28;19932;-73
2023/01/31 00:05:12;;;;;;;;;;;3.90;99.90;;;;;;4983730;28;214246;-74
2023/01/31 00:07:38;;;;;;;;;;;3.90;99.90;;;;;;5042623;28;20341;-73
2023/01/31 00:10:04;;;;;;;;;;;3.80;99.90;;;;;;4986795;28;210490;-73
2023/01/31 00:12:30;;;;;;;;;;;3.80;99.90;;;;;;5045708;28;19935;-72
2023/01/31 00:14:56;;;;;;;;;;;3.70;99.90;;;;;;5006796;28;248773;-73
2023/01/31 00:17:22;;;;;;;;;;;3.70;99.90;;;;;;5044255;28;20427;-74
2023/01/31 00:19:48;;;;;;;;;;;3.60;99.90;;;;;;4989686;28;222071;-73
2023/01/31 00:22:14;;;;;;;;;;;3.60;99.90;;;;;;5040327;28;20305;-73
2023/01/31 00:24:39;;;;;;;;;;;3.50;99.90;;;;;;4993600;28;209738;-73
2023/01/31 00:27:07;;;;;;;;;;;3.60;99.90;;;;;;5057725;28;19935;-73
2023/01/31 00:29:33;;;;;;;;;;;3.50;99.90;;;;;;5015417;28;212655;-74
2023/01/31 00:31:59;;;;;;;;;;;3.50;99.90;;;;;;5039784;28;19931;-74
2023/01/31 00:34:25;;;;;;;;;;;3.30;99.90;;;;;;4982831;28;206146;-74
2023/01/31 00:36:51;;;;;;;;;;;3.40;99.90;;;;;;5052107;28;19931;-74
2023/01/31 00:39:16;;;;;;;;;;;3.30;99.90;;;;;;5007173;28;209515;-74
2023/01/31 00:41:42;;;;;;;;;;;3.20;99.90;;;;;;5061170;28;19935;-74
2023/01/31 00:44:08;;;;;;;;;;;3.20;99.90;;;;;;4984402;28;206430;-74
2023/01/31 00:46:34;;;;;;;;;;;3.10;99.90;;;;;;5049115;28;19936;-74
2023/01/31 00:49:01;;;;;;;;;;;3.10;99.90;;;;;;5005326;28;214997;-74
2023/01/31 00:51:28;;;;;;;;;;;3.10;99.90;;;;;;5057898;28;19925;-74
2023/01/31 00:53:55;;;;;;;;;;;3.10;99.90;;;;;;4987190;28;211718;-74
2023/01/31 00:56:23;;;;;;;;;;;3.10;99.90;;;;;;5082941;28;19928;-74
2023/01/31 00:58:49;;;;;;;;;;;3.00;99.90;;;;;;5002015;28;206567;-74
2023/01/31 01:01:18;;;;;;;;;;;3.00;99.90;;;;;;5040895;28;19925;-74
2023/01/31 01:03:44;;;;;;;;;;;2.90;99.90;;;;;;4976942;28;131294;-74
2023/01/31 01:06:11;;;;;;;;;;;2.90;99.90;;;;;;5027481;28;20305;-75
2023/01/31 01:08:38;;;;;;;;;;;2.90;99.90;;;;;;4985979;28;208766;-74
2023/01/31 01:11:08;;;;;;;;;;;2.80;99.90;;;;;;5055365;28;19931;-74
2023/01/31 01:13:34;;;;;;;;;;;2.80;99.90;;;;;;4995880;28;209381;-74
2023/01/31 01:16:04;;;;;;;;;;;2.90;99.90;;;;;;5026688;28;19935;-74
2023/01/31 01:18:34;;;;;;;;;;;2.80;99.90;;;;;;4981344;28;220959;-75
2023/01/31 01:21:10;;;;;;;;;;;2.80;99.90;;;;;;5022874;28;19932;-74
2023/01/31 01:23:37;;;;;;;;;;;2.80;99.90;;;;;;5000028;28;214934;-74
2023/01/31 01:26:04;;;;;;;;;;;2.80;99.90;;;;;;5026024;28;19920;-74
2023/01/31 01:28:34;;;;;;;;;;;2.80;99.90;;;;;;4990140;28;208867;-74
2023/01/31 01:31:03;;;;;;;;;;;2.80;99.90;;;;;;5044592;28;19927;-74
2023/01/31 01:33:30;;;;;;;;;;;2.90;99.90;;;;;;4986868;28;208930;-74
2023/01/31 01:36:03;;;;;;;;;;;2.90;99.90;;;;;;5028612;28;19932;-74
2023/01/31 01:38:29;;;;;;;;;;;2.90;99.90;;;;;;5010723;28;208945;-73
2023/01/31 01:40:55;;;;;;;;;;;2.80;99.90;;;;;;5019371;28;19932;-73
2023/01/31 01:43:37;;;;;;;;;;;2.80;99.90;;;;;;4985034;28;219376;-73
2023/01/31 01:46:03;;;;;;;;;;;2.80;99.90;;;;;;5014650;28;19924;-73
2023/01/31 01:48:29;;;;;;;;;;;2.80;99.90;;;;;;5002759;28;208285;-73
2023/01/31 01:50:56;;;;;;;;;;;2.80;99.90;;;;;;5035950;28;19925;-73
2023/01/31 01:53:23;;;;;;;;;;;2.80;99.90;;;;;;4968095;28;210077;-74
2023/01/31 01:55:52;;;;;;;;;;;2.80;99.90;;;;;;5006562;28;19931;-74
2023/01/31 01:58:32;;;;;;;;;;;2.80;99.90;;;;;;5004364;28;209116;-73
2023/01/31 02:00:58;;;;;;;;;;;2.80;99.90;;;;;;5009902;28;19940;-74
2023/01/31 02:03:25;;;;;;;;;;;2.80;99.90;;;;;;4954846;28;208523;-73
2023/01/31 02:05:52;;;;;;;;;;;2.80;99.90;;;;;;5018271;28;20297;-74
2023/01/31 02:08:20;;;;;;;;;;;2.90;99.90;;;;;;4998351;28;209652;-73
2023/01/31 02:10:46;;;;;;;;;;;2.80;99.90;;;;;;5028342;28;19931;-73
2023/01/31 02:13:12;;;;;;;;;;;2.80;99.90;;;;;;5034885;28;20337;-75
2023/01/31 02:15:38;;;;;;;;;;;2.90;99.90;;;;;;4961893;28;216499;-74
2023/01/31 02:18:04;;;;;;;;;;;2.90;99.90;;;;;;5037621;28;20420;-74
2023/01/31 02:20:36;;;;;;;;;;;2.90;99.90;;;;;;4986593;28;211335;-74
2023/01/31 02:23:11;;;;;;;;;;;2.90;99.90;;;;;;5034623;28;19936;-73
2023/01/31 02:25:56;;;;;;;;;;;3.00;99.90;;;;;;4982050;28;206990;-76
2023/01/31 02:28:31;;;;;;;;;;;3.00;99.90;;;;;;4984122;28;209435;-74
2023/01/31 02:31:11;;;;;;;;;;;3.00;99.90;;;;;;5031793;28;19987;-74
2023/01/31 02:33:44;;;;;;;;;;;3.00;99.90;;;;;;4997979;28;209447;-74
2023/01/31 02:36:16;;;;;;;;;;;3.00;99.90;;;;;;5022047;28;19940;-74
2023/01/31 02:39:00;;;;;;;;;;;3.00;99.90;;;;;;4994251;28;214538;-74
2023/01/31 02:41:30;;;;;;;;;;;3.00;99.90;;;;;;5024523;28;19928;-74
2023/01/31 02:46:47;;;;;;;;;;;3.00;99.90;;;;;;5043320;28;19925;-74
2023/01/31 02:49:35;;;;;;;;;;;3.10;99.90;;;;;;4983722;28;209755;-74
2023/01/31 02:52:16;;;;;;;;;;;3.10;99.90;;;;;;5033649;28;19925;-74
2023/01/31 02:57:37;;;;;;;;;;;3.10;99.90;;;;;;5037216;28;19921;-74
2023/01/31 03:00:04;;;;;;;;;;;3.10;99.90;;;;;;4975573;28;212167;-74
2023/01/31 03:02:30;;;;;;;;;;;3.20;99.90;;;;;;5038887;28;19928;-74
2023/01/31 03:04:56;;;;;;;;;;;3.20;99.90;;;;;;4961901;28;244331;-74
2023/01/31 03:07:25;;;;;;;;;;;3.20;99.90;;;;;;5037988;28;19940;-74
2023/01/31 03:09:54;;;;;;;;;;;3.20;99.90;;;;;;4990555;28;210386;-74
2023/01/31 03:12:30;;;;;;;;;;;3.20;99.90;;;;;;5036275;28;20396;-74
2023/01/31 03:15:16;;;;;;;;;;;3.20;99.90;;;;;;4984483;28;208484;-74
2023/01/31 03:17:45;;;;;;;;;;;3.30;99.90;;;;;;5054803;28;19920;-74
2023/01/31 03:20:20;;;;;;;;;;;3.30;99.90;;;;;;4972571;28;207086;-73
2023/01/31 03:22:48;;;;;;;;;;;3.40;99.90;;;;;;5043459;28;19925;-73
2023/01/31 03:25:17;;;;;;;;;;;3.50;99.90;;;;;;4962814;28;208373;-74
2023/01/31 03:27:47;;;;;;;;;;;3.50;99.90;;;;;;5038896;28;19925;-74
2023/01/31 03:30:17;;;;;;;;;;;3.50;99.90;;;;;;4985718;28;211175;-74
2023/01/31 03:32:57;;;;;;;;;;;3.60;99.90;;;;;;5041721;28;19947;-74
2023/01/31 03:35:26;;;;;;;;;;;3.60;99.90;;;;;;5005234;28;208608;-74
2023/01/31 03:37:58;;;;;;;;;;;3.70;99.90;;;;;;5042602;28;19924;-74
2023/01/31 03:40:33;;;;;;;;;;;3.70;99.90;;;;;;4986949;28;212355;-74
2023/01/31 03:43:16;;;;;;;;;;;3.80;99.90;;;;;;5045899;28;19932;-74
2023/01/31 03:45:49;;;;;;;;;;;3.80;99.90;;;;;;4985351;28;20279;-74
2023/01/31 03:48:17;;;;;;;;;;;3.80;99.90;;;;;;5023881;28;208654;-74
2023/01/31 03:50:48;;;;;;;;;;;3.90;99.90;;;;;;4974799;28;88067;-74
2023/01/31 03:53:17;;;;;;;;;;;3.90;99.90;;;;;;5030478;28;207116;-74
2023/01/31 03:55:58;;;;;;;;;;;4.00;99.90;;;;;;4986168;28;200242;-73
2023/01/31 03:58:27;;;;;;;;;;;4.10;99.90;;;;;;4990026;28;209650;-73
2023/01/31 04:00:53;;;;;;;;;;;4.20;99.90;;;;;;5024168;28;19929;-73
2023/01/31 04:03:22;;;;;;;;;;;4.30;99.90;;;;;;4994928;28;214752;-74
2023/01/31 04:05:48;;;;;;;;;;;4.40;99.90;;;;;;4989733;28;89218;-73
2023/01/31 04:08:15;;;;;;;;;;;4.50;99.90;;;;;;5048181;28;209620;-74
2023/01/31 04:10:41;;;;;;;;;;;4.40;99.90;;;;;;4983514;28;206479;-74
2023/01/31 04:13:07;;;;;;;;;;;4.50;99.90;;;;;;5017931;28;20386;-73
2023/01/31 04:15:33;;;;;;;;;;;4.50;99.90;;;;;;4973950;28;208500;-73
2023/01/31 04:17:58;;;;;;;;;;;4.60;99.90;;;;;;5038431;28;19927;-73
2023/01/31 04:20:24;;;;;;;;;;;4.60;99.90;;;;;;4983252;28;208149;-73
2023/01/31 04:22:50;;;;;;;;;;;4.60;99.90;;;;;;5042424;28;19932;-73
2023/01/31 04:25:16;;;;;;;;;;;4.60;99.90;;;;;;5007971;28;209350;-73
2023/01/31 04:27:42;;;;;;;;;;;4.60;99.90;;;;;;5044741;28;19935;-74
2023/01/31 04:30:09;;;;;;;;;;;4.60;99.90;;;;;;4992412;28;208593;-74
2023/01/31 04:32:34;;;;;;;;;;;4.60;99.90;;;;;;5043436;28;19924;-74
2023/01/31 04:35:00;;;;;;;;;;;4.60;99.90;;;;;;4994822;28;208691;-72
2023/01/31 04:37:26;;;;;;;;;;;4.60;99.90;;;;;;5044673;28;19925;-73
2023/01/31 04:39:52;;;;;;;;;;;4.60;99.90;;;;;;4963615;28;205703;-73
2023/01/31 04:42:18;;;;;;;;;;;4.60;99.90;;;;;;5054620;28;19931;-74
2023/01/31 04:44:44;;;;;;;;;;;4.70;99.90;;;;;;4995260;28;208556;-74
2023/01/31 04:47:10;;;;;;;;;;;4.70;99.90;;;;;;5019860;28;19928;-74
2023/01/31 04:49:36;;;;;;;;;;;4.70;99.90;;;;;;4985014;28;180582;-75
2023/01/31 04:52:02;;;;;;;;;;;4.70;99.90;;;;;;5036147;28;19929;-74
2023/01/31 04:54:28;;;;;;;;;;;4.70;99.90;;;;;;4974454;28;218137;-74
2023/01/31 04:56:54;;;;;;;;;;;4.70;99.90;;;;;;5032354;28;19931;-74
2023/01/31 04:59:20;;;;;;;;;;;4.70;99.90;;;;;;5001691;28;207293;-74
2023/01/31 05:01:45;;;;;;;;;;;4.70;99.90;;;;;;5042081;28;20023;-73
2023/01/31 05:04:11;;;;;;;;;;;4.80;99.90;;;;;;4948920;28;251996;-73
2023/01/31 05:06:37;;;;;;;;;;;4.70;99.90;;;;;;5013594;28;20294;-72
2023/01/31 05:09:03;;;;;;;;;;;4.70;99.90;;;;;;4986581;28;209419;-72
2023/01/31 05:11:29;;;;;;;;;;;4.70;99.90;;;;;;5040061;28;19928;-74
2023/01/31 05:13:55;;;;;;;;;;;4.70;99.90;;;;;;4986648;28;163900;-73
2023/01/31 05:16:21;;;;;;;;;;;4.70;99.90;;;;;;5044177;28;19928;-74
2023/01/31 05:18:49;;;;;;;;;;;4.80;99.90;;;;;;5001857;28;212933;-73
2023/01/31 05:21:15;;;;;;;;;;;4.80;99.90;;;;;;5045211;28;19931;-75
2023/01/31 05:23:41;;;;;;;;;;;4.90;99.90;;;;;;4968198;28;206881;-74
2023/01/31 05:26:07;;;;;;;;;;;4.90;99.90;;;;;;5023374;28;19928;-73
2023/01/31 05:28:33;;;;;;;;;;;5.00;99.90;;;;;;4985914;28;212959;-73
2023/01/31 05:31:06;;;;;;;;;;;5.10;99.90;;;;;;5047300;28;19924;-73
2023/01/31 05:33:32;;;;;;;;;;;5.10;99.90;;;;;;5002740;28;209438;-74
2023/01/31 05:35:58;;;;;;;;;;;5.20;99.90;;;;;;5042739;28;19962;-73
2023/01/31 05:38:24;;;;;;;;;;;5.30;99.90;;;;;;4989571;28;208480;-73
2023/01/31 05:40:50;;;;;;;;;;;5.30;99.90;;;;;;5041984;28;20573;-73
2023/01/31 05:43:16;;;;;;;;;;;5.30;99.90;;;;;;5013656;28;210197;-73
2023/01/31 05:45:42;;;;;;;;;;;5.30;99.90;;;;;;5019554;28;89569;-74
2023/01/31 05:48:08;;;;;;;;;;;5.40;99.90;;;;;;5062277;28;19979;-74
2023/01/31 05:50:34;;;;;;;;;;;5.40;99.90;;;;;;4983762;28;208541;-74
2023/01/31 05:53:02;;;;;;;;;;;5.40;99.90;;;;;;5061714;28;19925;-74
2023/01/31 05:55:28;;;;;;;;;;;5.40;99.90;;;;;;4980860;28;211828;-74
2023/01/31 05:57:54;;;;;;;;;;;5.40;99.90;;;;;;5059598;28;19943;-74
2023/01/31 06:00:20;;;;;;;;;;;5.50;99.90;;;;;;4990508;28;211568;-73
2023/01/31 06:02:47;;;;;;;;;;;5.50;99.90;;;;;;5063568;28;19924;-73
2023/01/31 06:05:13;;;;;;;;;;;5.50;99.90;;;;;;4959445;28;209863;-73
2023/01/31 06:07:39;;;;;;;;;;;5.50;99.90;;;;;;5066161;28;19936;-73
2023/01/31 06:10:06;;;;;;;;;;;5.50;99.90;;;;;;5007036;28;213336;-72
2023/01/31 06:12:32;;;;;;;;;;;5.50;99.90;;;;;;5046751;28;20249;-72
2023/01/31 06:14:58;;;;;;;;;;;5.60;99.90;;;;;;4980150;28;209206;-73
2023/01/31 06:17:24;;;;;;;;;;;5.60;99.90;;;;;;5044864;28;19921;-74
2023/01/31 06:19:50;;;;;;;;;;;5.60;99.90;;;;;;4996538;28;208340;-73
2023/01/31 06:22:17;;;;;;;;;;;5.60;99.90;;;;;;5048070;28;19933;-73
2023/01/31 06:24:43;;;;;;;;;;;5.60;99.90;;;;;;4993495;28;209239;-72
2023/01/31 06:27:09;;;;;;;;;;;5.60;99.90;;;;;;5046427;28;21655;-73
2023/01/31 06:29:34;;;;;;;;;;;5.60;99.90;;;;;;4987640;28;209046;-74
2023/01/31 06:32:00;;;;;;;;;;;5.60;99.90;;;;;;5044472;28;19924;-74
2023/01/31 06:34:26;;;;;;;;;;;5.60;99.90;;;;;;4994380;28;211708;-73
2023/01/31 06:36:52;;;;;;;;;;;5.60;99.90;;;;;;5038472;28;20958;-73
2023/01/31 06:39:18;;;;;;;;;;;5.60;99.90;;;;;;4961939;28;207545;-73
2023/01/31 06:41:44;;;;;;;;;;;5.70;99.90;;;;;;5057383;28;19928;-73
2023/01/31 06:44:10;;;;;;;;;;;5.60;99.90;;;;;;5004404;28;209235;-73
2023/01/31 06:46:37;;;;;;;;;;;5.70;99.90;;;;;;5033476;28;19931;-73
2023/01/31 06:49:03;;;;;;;;;;;5.70;99.90;;;;;;5008430;28;208859;-74
2023/01/31 06:51:29;;;;;;;;;;;5.70;99.90;;;;;;5040076;28;19925;-74
2023/01/31 06:53:55;;;;;;;;;;;5.70;99.90;;;;;;4986908;28;206816;-74
2023/01/31 06:56:21;;;;;;;;;;;5.70;99.90;;;;;;5019075;28;19931;-75
2023/01/31 06:58:47;;;;;;;;;;;5.70;99.90;;;;;;4997250;28;209091;-74
2023/01/31 07:01:14;;;;;;;;;;;5.70;99.90;;;;;;5036608;28;20058;-74
2023/01/31 07:03:40;;;;;;;;;;;5.70;99.90;;;;;;4950437;28;209217;-74
2023/01/31 07:06:07;;;;;;;;;;;5.80;99.90;;;;;;5040137;28;19935;-74
2023/01/31 07:08:33;;;;;;;;;;;5.80;99.90;;;;;;4999139;28;209449;-72
2023/01/31 07:11:00;;;;;;;;;;;5.80;99.90;;;;;;5017694;28;19929;-74
2023/01/31 07:13:27;;;;;;;;;;;5.80;99.90;;;;;;4988945;28;215135;-73
2023/01/31 07:15:53;;;;;;;;;;;5.80;99.90;;;;;;5063301;28;19931;-74
2023/01/31 07:18:19;;;;;;;;;;;5.80;99.90;;;;;;5007916;28;209961;-73
2023/01/31 07:20:45;;;;;;;;;;;5.80;99.90;;;;;;5017508;28;19975;-73
2023/01/31 07:23:11;;;;;;;;;;;5.80;99.90;;;;;;5047683;28;20367;-73
2023/01/31 07:25:37;;;;;;;;;;;5.80;99.90;;;;;;4991680;28;217568;-73
2023/01/31 07:28:03;;;;;;;;;;;5.90;99.90;;;;;;5044981;28;20305;-74
2023/01/31 07:30:29;;;;;;;;;;;5.90;99.90;;;;;;5004065;28;212131;-72
2023/01/31 07:32:55;;;;;;;;;;;5.90;99.90;;;;;;5060933;28;19924;-72
2023/01/31 07:35:21;;;;;;;;;;;5.90;99.90;;;;;;4991988;28;204523;-73
2023/01/31 07:37:50;;;;;;;;;;;5.90;99.90;;;;;;5045357;28;20548;-73
2023/01/31 07:40:16;;;;;;;;;;;5.90;99.90;;;;;;4985247;28;208930;-73
2023/01/31 07:42:42;;;;;;;;;;;5.90;99.90;;;;;;5047128;28;20335;-73
2023/01/31 07:45:10;;;;;;;;;;;5.90;99.90;;;;;;5001160;28;115448;-73
2023/01/31 07:47:36;;;;;;;;;;;5.90;99.90;;;;;;5043738;28;19921;-74
2023/01/31 07:50:02;;;;;;;;;;;5.90;99.90;;;;;;4968719;28;208288;-70
2023/01/31 07:52:28;;;;;;;;;;;5.90;99.90;;;;;;5055679;28;20539;-71
2023/01/31 07:54:54;;;;;;;;;;;6.00;99.90;;;;;;4980860;28;217348;-72
2023/01/31 07:57:20;;;;;;;;;;;6.00;99.90;;;;;;5061255;28;19931;-72
2023/01/31 07:59:46;;;;;;;;;;;6.00;99.90;;;;;;5007351;28;209889;-72
2023/01/31 08:04:57;;;;;;;;;;;5.90;99.90;;;;;;4983884;28;218049;-73
2023/01/31 08:07:24;;;;;;;;;;;5.90;99.90;;;;;;5044004;28;20411;-72
2023/01/31 08:09:50;;;;;;;;;;;6.00;99.90;;;;;;4984464;28;185697;-72
2023/01/31 08:12:16;;;;;;;;;;;6.00;99.90;;;;;;5052124;28;19951;-72
2023/01/31 08:14:42;;;;;;;;;;;6.00;99.90;;;;;;5015038;28;208913;-72
2023/01/31 08:17:08;;;;;;;;;;;6.00;99.90;;;;;;5064457;28;19929;-72
2023/01/31 08:19:34;;;;;;;;;;;6.00;99.90;;;;;;4999712;28;210083;-72
2023/01/31 08:22:00;;;;;;;;;;;6.00;99.90;;;;;;5051568;28;19942;-72
2023/01/31 08:24:26;;;;;;;;;;;6.10;99.90;;;;;;4975637;28;209727;-71
2023/01/31 08:26:52;;;;;;;;;;;6.10;99.90;;;;;;5056273;28;19930;-73
2023/01/31 08:29:18;;;;;;;;;;;6.10;99.90;;;;;;5003204;28;209762;-71
2023/01/31 08:31:44;;;;;;;;;;;6.10;99.90;;;;;;5044439;28;20385;-71
2023/01/31 08:34:10;;;;;;;;;;;6.10;99.90;;;;;;5007005;28;209187;-72
2023/01/31 08:36:36;;;;;;;;;;;6.20;99.90;;;;;;5037810;28;19931;-71
2023/01/31 08:39:02;;;;;;;;;;;6.20;99.90;;;;;;4988097;28;208954;-73
2023/01/31 08:41:29;;;;;;;;;;;6.20;99.90;;;;;;5036526;28;19932;-71
2023/01/31 08:43:56;;;;;;;;;;;6.20;99.90;;;;;;4983991;28;208756;-72
2023/01/31 08:46:28;;;;;;;;;;;6.20;99.90;;;;;;5035958;28;20292;-71
2023/01/31 08:48:54;;;;;;;;;;;6.20;99.90;;;;;;4991847;28;207027;-71
2023/01/31 08:51:20;;;;;;;;;;;6.20;99.90;;;;;;5036456;28;20321;-70
2023/01/31 08:53:47;;;;;;;;;;;6.20;99.90;;;;;;5001328;28;211552;-72
2023/01/31 08:56:13;;;;;;;;;;;6.30;99.90;;;;;;5036336;28;19936;-72
2023/01/31 08:58:40;;;;;;;;;;;6.30;99.90;;;;;;5011758;28;208421;-71
2023/01/31 09:01:07;;;;;;;;;;;6.30;99.90;;;;;;5057375;28;19928;-72
2023/01/31 09:03:33;;;;;;;;;;;6.30;99.90;;;;;;4991172;28;208804;-72
2023/01/31 09:06:00;;;;;;;;;;;6.30;99.90;;;;;;5031807;28;19936;-73
2023/01/31 09:08:26;;;;;;;;;;;6.40;99.90;;;;;;4993715;28;212617;-72
2023/01/31 09:10:53;;;;;;;;;;;6.40;99.90;;;;;;5064544;28;20437;-72
2023/01/31 09:13:19;;;;;;;;;;;6.40;99.90;;;;;;5019820;28;208824;-72
2023/01/31 09:15:45;;;;;;;;;;;6.40;99.90;;;;;;5045328;28;19925;-71
2023/01/31 09:18:11;;;;;;;;;;;6.40;99.90;;;;;;5058616;28;19944;-72
2023/01/31 09:20:36;;;;;;;;;;;6.40;99.90;;;;;;4979565;28;206310;-69
2023/01/31 09:23:02;;;;;;;;;;;6.40;99.90;;;;;;5042518;28;19928;-71
2023/01/31 09:25:28;;;;;;;;;;;6.40;99.90;;;;;;4976957;28;206855;-71
2023/01/31 09:27:54;;;;;;;;;;;6.50;99.90;;;;;;5045204;28;20305;-71
2023/01/31 09:30:20;;;;;;;;;;;6.50;99.90;;;;;;4994559;28;209075;-72
2023/01/31 09:32:46;;;;;;;;;;;6.50;99.90;;;;;;5058872;28;19970;-70
2023/01/31 09:35:12;;;;;;;;;;;6.50;99.90;;;;;;4980147;28;209475;-71
2023/01/31 09:37:38;;;;;;;;;;;6.60;99.90;;;;;;5039177;28;20118;-71
2023/01/31 09:40:04;;;;;;;;;;;6.60;99.90;;;;;;5004418;28;212112;-70
2023/01/31 09:42:35;;;;;;;;;;;6.60;99.90;;;;;;5062166;28;20011;-70
2023/01/31 09:45:03;;;;;;;;;;;6.70;99.90;;;;;;4974700;28;206504;-71
2023/01/31 09:47:36;;;;;;;;;;;6.70;99.90;;;;;;5057847;28;19925;-71
2023/01/31 09:50:05;;;;;;;;;;;6.70;99.90;;;;;;4960063;28;206517;-71
2023/01/31 09:52:32;;;;;;;;;;;6.70;99.90;;;;;;5039223;28;19921;-72
2023/01/31 09:54:58;;;;;;;;;;;6.80;99.90;;;;;;4985705;28;206696;-71
2023/01/31 09:57:49;;;;;;;;;;;6.80;99.90;;;;;;5065888;28;19924;-71
2023/01/31 10:00:26;;;;;;;;;;;6.80;99.90;;;;;;4995869;28;223908;-72
2023/01/31 10:02:52;;;;;;;;;;;6.80;99.90;;;;;;5058385;28;19940;-72
2023/01/31 10:05:20;;;;;;;;;;;6.80;99.90;;;;;;4970659;28;206816;-71
2023/01/31 10:07:59;;;;;;;;;;;6.80;99.90;;;;;;5039372;28;19925;-72
2023/01/31 10:10:34;;;;;;;;;;;6.80;99.90;;;;;;4990765;28;201100;-71
2023/01/31 10:13:03;;;;;;;;;;;6.80;99.90;;;;;;5040868;28;19925;-71
2023/01/31 10:15:43;;;;;;;;;;;6.90;99.90;;;;;;4996797;28;205891;-71
2023/01/31 10:18:24;;;;;;;;;;;6.90;99.90;;;;;;5039392;28;20313;-70
2023/01/31 10:20:57;;;;;;;;;;;6.90;99.90;;;;;;4984664;28;138613;-71
2023/01/31 10:23:35;;;;;;;;;;;6.90;99.90;;;;;;4989035;28;209922;-71
2023/01/31 10:26:08;;;;;;;;;;;7.00;99.90;;;;;;5052136;28;19936;-71
2023/01/31 10:28:52;;;;;;;;;;;7.00;99.90;;;;;;4985365;28;212108;-71
2023/01/31 10:31:29;;;;;;;;;;;7.00;99.90;;;;;;5041409;28;19925;-71
2023/01/31 10:34:17;;;;;;;;;;;7.10;99.90;;;;;;4986078;28;206377;-71
2023/01/31 10:37:02;;;;;;;;;;;7.00;99.90;;;;;;5031982;28;19929;-72
2023/01/31 10:39:32;;;;;;;;;;;6.90;99.90;;;;;;4978291;28;206776;-71
2023/01/31 10:41:57;;;;;;;;;;;6.80;99.90;;;;;;5036829;28;20333;-70
2023/01/31 10:44:28;;;;;;;;;;;6.80;99.90;;;;;;4975842;28;206556;-72
2023/01/31 10:46:55;;;;;;;;;;;6.80;99.90;;;;;;5041600;28;20491;-71
2023/01/31 10:49:23;;;;;;;;;;;6.70;99.90;;;;;;4962101;28;206645;-70
2023/01/31 10:51:52;;;;;;;;;;;6.70;99.90;;;;;;5028000;28;19925;-71
2023/01/31 10:54:18;;;;;;;;;;;6.60;99.90;;;;;;4983658;28;208823;-71
2023/01/31 10:56:45;;;;;;;;;;;6.60;99.90;;;;;;5044750;28;19933;-71
2023/01/31 10:59:25;;;;;;;;;;;6.60;99.90;;;;;;4995224;28;209326;-72
2023/01/31 11:01:51;;;;;;;;;;;6.60;99.90;;;;;;5050601;28;19929;-72
2023/01/31 11:04:21;;;;;;;;;;;6.60;99.90;;;;;;4986627;28;208426;-72
2023/01/31 11:06:47;;;;;;;;;;;6.60;99.90;;;;;;5041628;28;19952;-72
2023/01/31 11:09:13;;;;;;;;;;;6.60;99.90;;;;;;5000689;28;208373;-71
2023/01/31 11:11:56;;;;;;;;;;;6.70;99.90;;;;;;5043162;28;20254;-71
2023/01/31 11:14:22;;;;;;;;;;;6.60;99.90;;;;;;4973207;28;207104;-71
2023/01/31 11:16:49;;;;;;;;;;;6.70;99.90;;;;;;5024653;28;20584;-70
2023/01/31 11:19:29;;;;;;;;;;;6.70;99.90;;;;;;4979925;28;211540;-71
2023/01/31 11:21:55;;;;;;;;;;;6.70;99.90;;;;;;5042067;28;20306;-71
2023/01/31 11:24:23;;;;;;;;;;;6.70;99.90;;;;;;4987842;28;209671;-69
2023/01/31 11:26:52;;;;;;;;;;;6.70;99.90;;;;;;5047186;28;20825;-71
2023/01/31 11:29:21;;;;;;;;;;;6.80;99.90;;;;;;4985870;28;210698;-70
2023/01/31 11:31:48;;;;;;;;;;;6.70;99.90;;;;;;5050009;28;19928;-70
2023/01/31 11:34:19;;;;;;;;;;;6.80;99.90;;;;;;4990809;28;208775;-71
2023/01/31 11:36:45;;;;;;;;;;;6.80;99.90;;;;;;5036588;28;19921;-71
2023/01/31 11:39:40;;;;;;;;;;;6.80;99.90;;;;;;4984277;28;209044;-71
2023/01/31 11:42:10;;;;;;;;;;;6.80;99.90;;;;;;5034927;28;19928;-69
2023/01/31 11:44:51;;;;;;;;;;;6.80;99.90;;;;;;4980798;28;212339;-69
2023/01/31 11:47:18;;;;;;;;;;;6.80;99.90;;;;;;5043630;28;19924;-68
2023/01/31 11:49:47;;;;;;;;;;;6.80;99.90;;;;;;4998670;28;216607;-72
2023/01/31 11:52:15;;;;;;;;;;;6.80;99.90;;;;;;5046896;28;19920;-70
2023/01/31 11:54:44;;;;;;;;;;;6.80;99.90;;;;;;4988324;28;209013;-71
2023/01/31 11:57:15;;;;;;;;;;;6.80;99.90;;;;;;5040904;28;19924;-70
2023/01/31 11:59:41;;;;;;;;;;;6.80;99.90;;;;;;4978547;28;206584;-70
2023/01/31 12:02:18;;;;;;;;;;;6.90;99.90;;;;;;5038254;28;20382;-70
2023/01/31 12:04:44;;;;;;;;;;;7.00;99.90;;;;;;4937884;28;204763;-70
2023/01/31 12:07:23;;;;;;;;;;;7.10;99.90;;;;;;5031177;28;20394;-71
2023/01/31 12:09:50;;;;;;;;;;;7.20;99.90;;;;;;4974598;28;209576;-69
2023/01/31 12:12:25;;;;;;;;;;;7.20;99.90;;;;;;5034414;28;19927;-71
2023/01/31 12:14:53;;;;;;;;;;;7.30;99.90;;;;;;4991899;28;205510;-70
2023/01/31 12:17:20;;;;;;;;;;;7.40;99.90;;;;;;5041921;28;19929;-69
2023/01/31 12:19:57;;;;;;;;;;;7.50;99.90;;;;;;4990556;28;53996;-70
2023/01/31 12:22:41;;;;;;;;;;;7.50;99.90;;;;;;5032201;28;19935;-71
2023/01/31 12:25:06;;;;;;;;;;;7.60;99.90;;;;;;4970986;28;212556;-71
2023/01/31 12:27:38;;;;;;;;;;;7.70;99.90;;;;;;5044774;28;19968;-70
2023/01/31 12:30:16;;;;;;;;;;;7.80;99.90;;;;;;4990206;28;208836;-70
2023/01/31 12:32:45;;;;;;;;;;;7.80;99.90;;;;;;5039331;28;19920;-70
2023/01/31 12:35:19;;;;;;;;;;;7.90;99.90;;;;;;4995142;28;208332;-70
2023/01/31 12:37:54;;;;;;;;;;;7.90;99.90;;;;;;5046551;28;19927;-69
2023/01/31 12:40:31;;;;;;;;;;;7.90;99.90;;;;;;4992013;28;189890;-70
2023/01/31 12:42:59;;;;;;;;;;;8.00;99.90;;;;;;5045442;28;19933;-71
2023/01/31 12:45:25;;;;;;;;;;;8.00;99.90;;;;;;4973632;28;209795;-71
2023/01/31 12:47:54;;;;;;;;;;;8.10;99.90;;;;;;5043358;28;19925;-72
2023/01/31 12:50:30;;;;;;;;;;;8.20;99.90;;;;;;4958479;28;209038;-71
2023/01/31 12:53:08;;;;;;;;;;;8.20;99.90;;;;;;5040168;28;19929;-71
2023/01/31 12:55:43;;;;;;;;;;;8.30;99.90;;;;;;4978018;28;210062;-71
2023/01/31 12:58:09;;;;;;;;;;;8.40;99.90;;;;;;5042140;28;19921;-72
2023/01/31 13:00:41;;;;;;;;;;;8.40;99.90;;;;;;4972553;28;207418;-71
2023/01/31 13:03:13;;;;;;;;;;;8.50;99.90;;;;;;5036753;28;19943;-71
2023/01/31 13:05:39;;;;;;;;;;;8.50;99.90;;;;;;4988864;28;76367;-71
2023/01/31 13:08:10;;;;;;;;;;;8.60;99.90;;;;;;5040714;28;19925;-71
2023/01/31 13:10:54;;;;;;;;;;;8.60;99.90;;;;;;5005274;28;206256;-71
2023/01/31 13:13:24;;;;;;;;;;;8.60;99.90;;;;;;4998012;28;209415;-70
2023/01/31 13:15:53;;;;;;;;;;;8.50;99.90;;;;;;5036209;28;19925;-71
2023/01/31 13:18:20;;;;;;;;;;;8.50;99.90;;;;;;5016810;28;209827;-69
2023/01/31 13:20:48;;;;;;;;;;;8.50;99.90;;;;;;5037806;28;19929;-71
2023/01/31 13:23:21;;;;;;;;;;;8.50;99.90;;;;;;5029261;28;209139;-73
2023/01/31 13:25:53;;;;;;;;;;;8.50;99.90;;;;;;4999315;28;19924;-70
2023/01/31 13:28:30;;;;;;;;;;;8.50;99.90;;;;;;5003728;28;210845;-71
2023/01/31 13:31:04;;;;;;;;;;;8.60;99.90;;;;;;5016367;28;20401;-72
2023/01/31 13:33:46;;;;;;;;;;;8.50;99.90;;;;;;4981022;28;208882;-68
2023/01/31 13:36:15;;;;;;;;;;;8.60;99.90;;;;;;5039563;28;20625;-71
2023/01/31 13:38:42;;;;;;;;;;;8.60;99.90;;;;;;4984246;28;206731;-71
2023/01/31 13:41:15;;;;;;;;;;;8.60;99.90;;;;;;5043554;28;19928;-70
2023/01/31 13:43:41;;;;;;;;;;;8.60;99.90;;;;;;4987600;28;220392;-71
2023/01/31 13:46:08;;;;;;;;;;;8.60;99.90;;;;;;5052037;28;19927;-70
2023/01/31 13:48:55;;;;;;;;;;;8.60;99.90;;;;;;4984084;28;209905;-71
2023/01/31 13:51:29;;;;;;;;;;;8.60;99.90;;;;;;5017236;28;19924;-70
2023/01/31 13:53:59;;;;;;;;;;;8.50;99.90;;;;;;4986884;28;203671;-70
2023/01/31 13:56:27;;;;;;;;;;;8.60;99.90;;;;;;5040732;28;19921;-71
2023/01/31 13:58:54;;;;;;;;;;;8.50;99.90;;;;;;4987461;28;208957;-72
2023/01/31 14:01:24;;;;;;;;;;;8.50;99.90;;;;;;5045327;28;20571;-70
2023/01/31 14:04:08;;;;;;;;;;;8.50;99.90;;;;;;4979952;28;207554;-71
2023/01/31 14:06:53;;;;;;;;;;;8.50;99.90;;;;;;5034930;28;19932;-71
2023/01/31 14:09:22;;;;;;;;;;;8.60;99.90;;;;;;4976638;28;208963;-71
2023/01/31 14:11:48;;;;;;;;;;;8.60;99.90;;;;;;5019606;28;19931;-71
2023/01/31 14:14:18;;;;;;;;;;;8.70;99.90;;;;;;4975433;28;208942;-70
2023/01/31 14:16:45;;;;;;;;;;;8.70;99.90;;;;;;5027079;28;19932;-70
2023/01/31 14:19:22;;;;;;;;;;;8.70;99.90;;;;;;4994762;28;202528;-70
2023/01/31 14:21:56;;;;;;;;;;;8.70;99.90;;;;;;5040314;28;20008;-72
2023/01/31 14:24:41;;;;;;;;;;;8.70;99.90;;;;;;4976078;28;208481;-70
2023/01/31 14:27:30;;;;;;;;;;;8.70;99.90;;;;;;5026526;28;19921;-70
2023/01/31 14:30:05;;;;;;;;;;;8.70;99.90;;;;;;4979469;28;206935;-71
2023/01/31 14:32:34;;;;;;;;;;;8.70;99.90;;;;;;5036607;28;20333;-70
2023/01/31 14:35:12;;;;;;;;;;;8.70;99.90;;;;;;4964972;28;212041;-73
2023/01/31 14:37:44;;;;;;;;;;;8.60;99.90;;;;;;5025113;28;20318;-73
2023/01/31 14:40:13;;;;;;;;;;;8.60;99.90;;;;;;4976597;28;209458;-71
2023/01/31 14:43:02;;;;;;;;;;;8.60;99.90;;;;;;5041073;28;19929;-70